createdAt,value
2022-08-21T00:01:38.503Z,62.70
2022-08-21T00:04:48.291Z,62.10
2022-08-21T00:08:02.394Z,62.20
2022-08-21T00:11:09.029Z,62.30
2022-08-21T00:14:17.331Z,62.30
2022-08-21T00:17:22.894Z,62.40
2022-08-21T00:20:28.813Z,62.50
2022-08-21T00:23:34.487Z,63.30
2022-08-21T00:26:40.037Z,62.80
2022-08-21T00:29:47.645Z,62.90
2022-08-21T00:32:53.095Z,63.00
2022-08-21T00:35:58.233Z,63.00
2022-08-21T00:39:03.524Z,63.20
2022-08-21T00:42:09.123Z,63.40
2022-08-21T00:45:16.835Z,63.40
2022-08-21T00:48:21.950Z,63.60
2022-08-21T00:51:31.497Z,63.70
2022-08-21T00:54:46.303Z,63.80
2022-08-21T00:57:55.968Z,63.90
2022-08-21T01:01:08.600Z,63.90
2022-08-21T01:04:14.842Z,64.00
2022-08-21T01:07:21.057Z,64.00
2022-08-21T01:10:28.178Z,64.00
2022-08-21T01:13:38.694Z,64.10
2022-08-21T01:16:49.009Z,64.20
2022-08-21T01:19:54.016Z,64.30
2022-08-21T01:23:01.643Z,64.20
2022-08-21T01:26:08.418Z,64.40
2022-08-21T01:29:18.384Z,64.30
2022-08-21T01:32:24.147Z,64.40
2022-08-21T01:35:29.465Z,64.50
2022-08-21T01:38:37.179Z,64.50
2022-08-21T01:41:42.242Z,64.60
2022-08-21T01:44:48.322Z,64.70
2022-08-21T01:47:54.229Z,64.70
2022-08-21T01:50:59.926Z,64.70
2022-08-21T01:54:07.702Z,64.80
2022-08-21T01:57:13.508Z,64.90
2022-08-21T02:00:21.035Z,65.00
2022-08-21T02:03:35.279Z,65.00
2022-08-21T02:06:41.618Z,65.00
2022-08-21T02:09:49.393Z,65.10
2022-08-21T02:12:54.670Z,65.30
2022-08-21T02:15:59.664Z,65.20
2022-08-21T02:19:05.170Z,65.30
2022-08-21T02:22:10.721Z,65.30
2022-08-21T02:25:18.277Z,65.40
2022-08-21T02:28:23.230Z,65.50
2022-08-21T02:31:28.338Z,65.40
2022-08-21T02:34:33.322Z,65.50
2022-08-21T02:37:38.375Z,65.60
2022-08-21T02:40:51.072Z,65.60
2022-08-21T02:43:56.336Z,65.80
2022-08-21T02:47:01.297Z,65.70
2022-08-21T02:50:07.942Z,65.70
2022-08-21T02:53:17.520Z,65.80
2022-08-21T02:56:25.601Z,65.90
2022-08-21T02:59:36.448Z,66.00
2022-08-21T03:02:41.526Z,66.00
2022-08-21T03:05:47.685Z,66.10
2022-08-21T03:08:52.839Z,66.10
2022-08-21T03:12:00.677Z,66.20
2022-08-21T03:15:06.112Z,66.30
2022-08-21T03:18:12.771Z,66.30
2022-08-21T03:21:19.950Z,66.30
2022-08-21T03:24:25.467Z,66.40
2022-08-21T03:27:34.976Z,66.50
2022-08-21T03:30:40.390Z,66.60
2022-08-21T03:33:45.317Z,66.60
2022-08-21T03:36:50.555Z,66.60
2022-08-21T03:39:55.718Z,66.60
2022-08-21T03:43:03.471Z,66.70
2022-08-21T03:46:09.493Z,66.80
2022-08-21T03:49:14.497Z,66.80
2022-08-21T03:52:19.766Z,66.80
2022-08-21T03:55:25.034Z,66.90
2022-08-21T03:58:32.829Z,66.90
2022-08-21T04:01:38.150Z,67.00
2022-08-21T04:04:43.311Z,67.00
2022-08-21T04:07:48.263Z,67.10
2022-08-21T04:10:56.077Z,67.10
2022-08-21T04:14:03.637Z,67.10
2022-08-21T04:17:08.682Z,67.20
2022-08-21T04:20:16.350Z,67.20
2022-08-21T04:23:23.759Z,67.30
2022-08-21T04:26:29.848Z,67.30
2022-08-21T04:29:40.033Z,67.40
2022-08-21T04:32:46.803Z,67.50
2022-08-21T04:35:52.039Z,67.40
2022-08-21T04:38:57.221Z,67.50
2022-08-21T04:42:02.263Z,67.50
2022-08-21T04:45:10.376Z,67.60
2022-08-21T04:48:16.916Z,67.70
2022-08-21T04:51:26.450Z,67.80
2022-08-21T04:54:32.313Z,67.80
2022-08-21T04:57:48.221Z,67.80
2022-08-21T05:00:59.675Z,67.90
2022-08-21T05:04:08.172Z,68.00
2022-08-21T05:07:18.837Z,68.00
2022-08-21T05:10:44.239Z,68.10
2022-08-21T05:13:49.402Z,68.10
2022-08-21T05:17:03.930Z,68.10
2022-08-21T05:20:09.722Z,68.30
2022-08-21T05:23:17.330Z,68.30
2022-08-21T05:26:22.281Z,68.40
2022-08-21T05:29:27.199Z,68.50
2022-08-21T05:32:34.841Z,68.60
2022-08-21T05:35:41.604Z,68.70
2022-08-21T05:38:46.854Z,68.70
2022-08-21T05:41:51.862Z,68.80
2022-08-21T05:44:56.835Z,68.90
2022-08-21T05:48:09.639Z,69.00
2022-08-21T05:51:17.326Z,69.20
2022-08-21T05:54:22.271Z,69.20
2022-08-21T05:57:27.422Z,69.30
2022-08-21T06:00:33.223Z,69.30
2022-08-21T06:03:43.807Z,69.40
2022-08-21T06:06:48.743Z,69.60
2022-08-21T06:09:53.764Z,69.60
2022-08-21T06:12:58.891Z,69.70
2022-08-21T06:16:09.923Z,69.70
2022-08-21T06:19:17.502Z,69.80
2022-08-21T06:22:22.823Z,69.90
2022-08-21T06:25:28.330Z,69.80
2022-08-21T06:28:33.331Z,69.80
2022-08-21T06:31:38.537Z,69.80
2022-08-21T06:34:46.328Z,69.90
2022-08-21T06:37:51.233Z,69.80
2022-08-21T06:40:56.255Z,69.70
2022-08-21T06:44:03.130Z,69.70
2022-08-21T06:47:08.499Z,69.60
2022-08-21T06:50:16.132Z,69.50
2022-08-21T06:53:23.109Z,69.50
2022-08-21T06:56:28.145Z,69.40
2022-08-21T06:59:33.043Z,69.30
2022-08-21T07:02:38.222Z,69.10
2022-08-21T07:05:49.376Z,68.90
2022-08-21T07:08:54.341Z,68.70
2022-08-21T07:12:04.054Z,68.50
2022-08-21T07:15:10.257Z,68.30
2022-08-21T07:18:15.680Z,68.10
2022-08-21T07:21:25.933Z,67.90
2022-08-21T07:24:31.757Z,67.60
2022-08-21T07:27:36.896Z,67.40
2022-08-21T07:30:41.945Z,67.20
2022-08-21T07:33:47.374Z,67.00
2022-08-21T07:36:54.894Z,67.00
2022-08-21T07:40:00.293Z,66.90
2022-08-21T07:43:05.289Z,66.70
2022-08-21T07:46:10.257Z,66.60
2022-08-21T07:49:15.161Z,66.40
2022-08-21T07:52:22.866Z,66.30
2022-08-21T07:55:27.991Z,66.00
2022-08-21T07:58:32.930Z,65.80
2022-08-21T08:01:38.655Z,65.60
2022-08-21T08:04:50.639Z,65.50
2022-08-21T08:07:59.648Z,65.30
2022-08-21T08:11:05.175Z,65.10
2022-08-21T08:14:10.262Z,64.90
2022-08-21T08:17:15.265Z,64.80
2022-08-21T08:20:22.565Z,64.50
2022-08-21T08:23:31.582Z,64.30
2022-08-21T08:26:36.541Z,64.20
2022-08-21T08:29:41.798Z,63.90
2022-08-21T08:32:46.942Z,63.90
2022-08-21T08:35:53.648Z,63.50
2022-08-21T08:39:01.810Z,63.20
2022-08-21T08:42:32.693Z,63.00
2022-08-21T08:45:43.468Z,62.70
2022-08-21T08:48:55.366Z,62.50
2022-08-21T08:52:04.445Z,62.30
2022-08-21T08:55:17.805Z,62.10
2022-08-21T08:58:26.680Z,61.80
2022-08-21T09:01:36.728Z,61.70
2022-08-21T09:04:45.314Z,61.50
2022-08-21T09:08:03.942Z,61.30
2022-08-21T09:11:19.030Z,61.00
2022-08-21T09:14:34.730Z,60.80
2022-08-21T09:17:52.382Z,60.60
2022-08-21T09:21:12.887Z,60.40
2022-08-21T09:24:30.695Z,60.00
2022-08-21T09:27:38.559Z,59.80
2022-08-21T09:30:44.606Z,59.70
2022-08-21T09:33:49.617Z,59.40
2022-08-21T09:36:54.851Z,59.20
2022-08-21T09:40:01.876Z,59.00
2022-08-21T09:43:19.566Z,58.80
2022-08-21T09:46:27.398Z,58.60
2022-08-21T09:49:33.352Z,58.50
2022-08-21T09:52:38.664Z,58.40
2022-08-21T09:56:12.658Z,58.30
2022-08-21T09:59:24.250Z,57.90
2022-08-21T10:02:32.657Z,57.90
2022-08-21T10:05:37.751Z,57.70
2022-08-21T10:08:44.696Z,57.60
2022-08-21T10:11:56.473Z,57.20
2022-08-21T10:15:14.610Z,56.90
2022-08-21T10:18:28.554Z,57.00
2022-08-21T10:21:36.079Z,56.50
2022-08-21T10:24:56.292Z,56.90
2022-08-21T10:28:13.515Z,56.70
2022-08-21T10:31:31.888Z,56.50
2022-08-21T10:34:45.718Z,56.70
2022-08-21T10:38:03.806Z,56.00
2022-08-21T10:41:18.642Z,56.30
2022-08-21T10:44:33.180Z,56.10
2022-08-21T10:47:46.422Z,55.80
2022-08-21T10:50:55.682Z,55.60
2022-08-21T10:54:08.958Z,55.60
2022-08-21T10:57:32.008Z,55.40
2022-08-21T11:00:43.142Z,55.30
2022-08-21T11:03:58.166Z,55.40
2022-08-21T11:07:17.459Z,55.00
2022-08-21T11:10:27.908Z,55.10
2022-08-21T11:13:41.260Z,54.80
2022-08-21T11:16:51.831Z,54.60
2022-08-21T11:20:07.217Z,54.40
2022-08-21T11:23:20.783Z,54.10
2022-08-21T11:26:34.348Z,54.00
2022-08-21T11:29:43.029Z,54.10
2022-08-21T11:33:02.669Z,54.00
2022-08-21T11:36:18.537Z,53.70
2022-08-21T11:39:30.001Z,53.60
2022-08-21T11:42:41.909Z,53.50
2022-08-21T11:45:50.962Z,53.30
2022-08-21T11:49:16.370Z,53.20
2022-08-21T11:52:27.862Z,53.40
2022-08-21T11:55:36.979Z,52.90
2022-08-21T11:58:45.769Z,52.80
2022-08-21T12:01:54.209Z,52.60
2022-08-21T12:05:08.408Z,52.50
2022-08-21T12:08:30.674Z,52.40
2022-08-21T12:11:35.920Z,52.80
2022-08-21T12:14:45.967Z,52.40
2022-08-21T12:18:01.417Z,52.20
2022-08-21T12:21:20.858Z,51.90
2022-08-21T12:24:40.086Z,51.90
2022-08-21T12:27:51.273Z,51.60
2022-08-21T12:30:58.204Z,51.70
2022-08-21T12:34:06.602Z,51.70
2022-08-21T12:37:25.447Z,52.20
2022-08-21T12:40:40.261Z,51.50
2022-08-21T12:43:47.317Z,51.60
2022-08-21T12:46:56.688Z,51.60
2022-08-21T12:50:07.096Z,51.60
2022-08-21T12:53:20.368Z,51.50
2022-08-21T12:56:30.228Z,51.70
2022-08-21T12:59:36.326Z,51.90
2022-08-21T13:02:46.053Z,51.90
2022-08-21T13:05:52.862Z,51.80
2022-08-21T13:09:03.031Z,51.70
2022-08-21T13:12:12.308Z,51.60
2022-08-21T13:15:18.749Z,51.40
2022-08-21T13:18:30.736Z,51.40
2022-08-21T13:21:42.730Z,51.30
2022-08-21T13:24:51.623Z,51.20
2022-08-21T13:28:10.147Z,51.10
2022-08-21T13:31:15.181Z,50.90
2022-08-21T13:34:21.714Z,51.10
2022-08-21T13:37:30.041Z,51.00
2022-08-21T13:40:42.499Z,51.00
2022-08-21T13:43:53.506Z,51.00
2022-08-21T13:46:58.806Z,51.50
2022-08-21T13:50:03.928Z,50.90
2022-08-21T13:53:23.362Z,50.80
2022-08-21T13:56:30.531Z,50.80
2022-08-21T13:59:39.755Z,50.80
2022-08-21T14:02:48.478Z,50.70
2022-08-21T14:05:53.439Z,50.70
2022-08-21T14:09:02.673Z,50.50
2022-08-21T14:12:23.805Z,50.40
2022-08-21T14:15:34.021Z,50.10
2022-08-21T14:18:47.774Z,50.20
2022-08-21T14:21:53.124Z,50.10
2022-08-21T14:25:04.034Z,50.10
2022-08-21T14:28:27.155Z,50.00
2022-08-21T14:31:36.426Z,49.90
2022-08-21T14:34:48.014Z,50.20
2022-08-21T14:37:54.048Z,50.20
2022-08-21T14:41:03.384Z,50.00
2022-08-21T14:44:10.971Z,50.00
2022-08-21T14:47:18.970Z,49.90
2022-08-21T14:50:23.922Z,49.90
2022-08-21T14:53:32.984Z,49.90
2022-08-21T14:56:39.565Z,49.90
2022-08-21T14:59:44.801Z,49.90
2022-08-21T15:02:52.408Z,50.10
2022-08-21T15:05:57.385Z,50.00
2022-08-21T15:09:04.742Z,50.00
2022-08-21T15:12:11.297Z,50.10
2022-08-21T15:15:17.736Z,50.00
2022-08-21T15:18:27.355Z,50.10
2022-08-21T15:21:32.407Z,50.10
2022-08-21T15:24:37.565Z,50.20
2022-08-21T15:27:42.558Z,50.20
2022-08-21T15:30:48.825Z,50.20
2022-08-21T15:33:56.351Z,50.30
2022-08-21T15:37:02.089Z,50.30
2022-08-21T15:40:08.863Z,50.50
2022-08-21T15:43:30.466Z,50.50
2022-08-21T15:46:36.025Z,50.50
2022-08-21T15:49:46.071Z,50.70
2022-08-21T15:52:51.050Z,50.80
2022-08-21T15:55:56.958Z,50.90
2022-08-21T15:59:04.956Z,51.10
2022-08-21T16:02:11.397Z,51.20
2022-08-21T16:05:20.094Z,51.30
2022-08-21T16:08:25.291Z,51.50
2022-08-21T16:11:31.758Z,51.70
2022-08-21T16:14:39.861Z,51.90
2022-08-21T16:17:48.755Z,52.00
2022-08-21T16:20:56.736Z,52.10
2022-08-21T16:24:01.876Z,52.30
2022-08-21T16:27:08.461Z,52.30
2022-08-21T16:30:15.531Z,52.50
2022-08-21T16:33:26.384Z,52.60
2022-08-21T16:36:34.002Z,52.60
2022-08-21T16:39:39.311Z,52.60
2022-08-21T16:42:46.202Z,52.70
2022-08-21T16:45:51.217Z,52.80
2022-08-21T16:48:56.298Z,52.90
2022-08-21T16:52:04.239Z,52.90
2022-08-21T16:55:10.378Z,53.00
2022-08-21T16:58:20.296Z,53.00
2022-08-21T17:01:29.046Z,53.10
2022-08-21T17:04:34.174Z,53.20
2022-08-21T17:07:42.300Z,53.20
2022-08-21T17:10:50.463Z,53.40
2022-08-21T17:13:55.681Z,53.50
2022-08-21T17:17:00.701Z,53.40
2022-08-21T17:20:06.569Z,53.50
2022-08-21T17:23:14.670Z,53.60
2022-08-21T17:26:20.033Z,53.60
2022-08-21T17:29:29.632Z,53.60
2022-08-21T17:32:34.736Z,53.60
2022-08-21T17:35:39.718Z,53.70
2022-08-21T17:38:47.350Z,53.80
2022-08-21T17:41:56.386Z,53.90
2022-08-21T17:45:03.908Z,53.90
2022-08-21T17:48:09.093Z,54.00
2022-08-21T17:51:14.629Z,54.10
2022-08-21T17:54:22.299Z,54.10
2022-08-21T17:57:29.046Z,54.30
2022-08-21T18:00:35.022Z,54.30
2022-08-21T18:03:40.158Z,54.50
2022-08-21T18:06:46.247Z,54.60
2022-08-21T18:09:54.011Z,54.70
2022-08-21T18:13:11.474Z,54.90
2022-08-21T18:16:19.529Z,55.00
2022-08-21T18:19:26.275Z,55.00
2022-08-21T18:22:31.769Z,55.10
2022-08-21T18:25:39.731Z,55.20
2022-08-21T18:28:45.433Z,55.40
2022-08-21T18:31:50.934Z,55.40
2022-08-21T18:34:57.705Z,55.50
2022-08-21T18:38:03.105Z,55.60
2022-08-21T18:41:11.165Z,55.80
2022-08-21T18:44:17.705Z,55.80
2022-08-21T18:47:27.113Z,55.90
2022-08-21T18:50:32.514Z,56.00
2022-08-21T18:53:39.518Z,56.10
2022-08-21T18:56:47.454Z,56.10
2022-08-21T18:59:52.435Z,56.30
2022-08-21T19:02:57.664Z,56.30
2022-08-21T19:06:02.947Z,56.30
2022-08-21T19:09:11.609Z,56.40
2022-08-21T19:12:25.961Z,56.50
2022-08-21T19:15:35.978Z,56.60
2022-08-21T19:18:43.838Z,56.60
2022-08-21T19:21:49.329Z,56.70
2022-08-21T19:24:54.555Z,56.70
2022-08-21T19:28:02.472Z,56.70
2022-08-21T19:31:16.350Z,56.90
2022-08-21T19:34:23.622Z,56.90
2022-08-21T19:37:28.598Z,56.80
2022-08-21T19:40:33.895Z,56.80
2022-08-21T19:43:45.661Z,56.90
2022-08-21T19:46:54.899Z,57.00
2022-08-21T19:50:04.723Z,57.00
2022-08-21T19:53:23.625Z,57.10
2022-08-21T19:56:30.973Z,57.20
2022-08-21T19:59:40.524Z,57.30
2022-08-21T20:02:58.858Z,57.40
2022-08-21T20:06:04.421Z,57.40
2022-08-21T20:09:10.793Z,57.50
2022-08-21T20:12:17.454Z,57.40
2022-08-21T20:15:25.515Z,57.50
2022-08-21T20:18:31.226Z,57.60
2022-08-21T20:21:43.911Z,57.60
2022-08-21T20:25:02.665Z,57.70
2022-08-21T20:28:08.842Z,57.80
2022-08-21T20:31:17.746Z,57.80
2022-08-21T20:34:25.465Z,57.80
2022-08-21T20:37:36.119Z,57.90
2022-08-21T20:40:42.166Z,58.00
2022-08-21T20:43:47.095Z,58.10
2022-08-21T20:46:56.003Z,58.10
2022-08-21T20:50:11.604Z,58.20
2022-08-21T20:53:25.814Z,58.20
2022-08-21T20:56:54.650Z,58.40
2022-08-21T21:00:03.498Z,58.40
2022-08-21T21:03:17.349Z,58.50
2022-08-21T21:06:30.491Z,58.60
2022-08-21T21:09:40.186Z,58.60
2022-08-21T21:12:53.306Z,58.70
2022-08-21T21:16:12.873Z,58.80
2022-08-21T21:19:39.865Z,59.00
2022-08-21T21:22:50.602Z,59.20
2022-08-21T21:26:02.872Z,59.10
2022-08-21T21:29:14.855Z,59.20
2022-08-21T21:32:20.085Z,59.30
2022-08-21T21:35:36.474Z,59.40
2022-08-21T21:38:51.541Z,59.50
2022-08-21T21:42:07.424Z,59.60
2022-08-21T21:45:22.898Z,59.70
2022-08-21T21:48:37.645Z,59.80
2022-08-21T21:52:00.451Z,59.90
2022-08-21T21:55:18.352Z,60.10
2022-08-21T21:58:56.236Z,60.20
2022-08-21T22:02:09.530Z,60.30
2022-08-21T22:05:31.474Z,60.20
2022-08-21T22:12:30.805Z,60.50
2022-08-21T22:15:35.893Z,60.70
2022-08-21T22:18:47.150Z,60.50
2022-08-21T22:25:37.039Z,60.80
2022-08-21T22:28:45.418Z,61.00
2022-08-21T22:35:35.169Z,61.40
2022-08-21T22:38:41.582Z,61.10
2022-08-21T22:41:50.825Z,61.20
2022-08-21T22:44:58.768Z,61.30
2022-08-21T22:48:11.116Z,61.30
2022-08-21T22:51:33.198Z,61.50
2022-08-21T22:54:41.295Z,61.70
2022-08-21T22:57:50.045Z,61.60
2022-08-21T23:01:00.850Z,61.70
2022-08-21T23:04:20.373Z,61.80
2022-08-21T23:07:42.858Z,62.00
2022-08-21T23:10:48.855Z,62.30
2022-08-21T23:13:57.222Z,62.00
2022-08-21T23:17:07.791Z,62.10
2022-08-21T23:20:19.761Z,62.20
2022-08-21T23:23:27.190Z,62.40
2022-08-21T23:26:37.280Z,62.40
2022-08-21T23:29:54.826Z,62.50
2022-08-21T23:33:19.886Z,62.80
2022-08-21T23:36:47.506Z,63.00
2022-08-21T23:40:06.809Z,62.80
2022-08-21T23:43:37.483Z,62.90
2022-08-21T23:47:03.751Z,63.00
2022-08-21T23:53:52.299Z,63.00
2022-08-21T23:57:10.607Z,63.20
